Time;durP1;ratioP1;P1;durP2;ratioP2;P2;SDS_P1;SDS_P2;PMS_P1;PMS_P2;Temp;Humidity;BMP_temperature;BMP_pressure;BME280_temperature;BME280_humidity;BME280_pressure;Samples;Min_cycle;Max_cycle;Signal;HPM_P1;HPM_P2
2022/05/22 00:01:57;;;;;;;10.15;4.35;;;;;;;15.13;67.79;101863.25;5059443;28;20087;-62
2022/05/22 00:04:23;;;;;;;10.98;4.13;;;;;;;15.12;68.00;101855.25;5059539;28;20031;-61
2022/05/22 00:06:49;;;;;;;7.97;4.07;;;;;;;15.14;68.25;101854.38;5059639;28;20033;-61
2022/05/22 00:09:15;;;;;;;9.80;3.70;;;;;;;15.18;68.15;101845.53;5059401;28;20536;-60
2022/05/22 00:11:40;;;;;;;9.85;4.00;;;;;;;15.21;68.18;101847.34;5059634;28;20103;-61
2022/05/22 00:14:06;;;;;;;7.45;3.97;;;;;;;15.23;68.17;101850.91;5059509;28;20028;-62
2022/05/22 00:16:37;;;;;;;7.05;3.97;;;;;;;15.26;68.13;101840.28;5059436;28;20021;-62
2022/05/22 00:19:04;;;;;;;7.75;4.10;;;;;;;15.15;68.45;101842.84;5059239;28;20077;-61
2022/05/22 00:21:30;;;;;;;9.93;4.10;;;;;;;15.15;68.18;101840.19;5059289;28;20029;-61
2022/05/22 00:23:55;;;;;;;9.43;4.07;;;;;;;15.17;67.83;101840.22;5059230;28;20588;-61
2022/05/22 00:26:20;;;;;;;9.25;4.15;;;;;;;15.17;67.68;101838.44;5059510;28;20398;-61
2022/05/22 00:28:46;;;;;;;9.32;4.07;;;;;;;15.09;68.56;101833.94;5059427;28;20478;-62
2022/05/22 00:31:12;;;;;;;11.30;4.30;;;;;;;15.01;68.64;101831.19;5059292;28;20382;-62
2022/05/22 00:33:38;;;;;;;10.57;4.28;;;;;;;15.05;68.32;101838.34;5059495;28;20025;-61
2022/05/22 00:36:04;;;;;;;15.65;4.65;;;;;;;15.04;68.60;101825.91;5059289;28;20066;-61
2022/05/22 00:38:29;;;;;;;10.52;4.00;;;;;;;15.00;68.78;101819.66;5059357;28;20040;-61
2022/05/22 00:40:55;;;;;;;11.90;4.60;;;;;;;14.89;69.24;101825.78;5059448;28;21114;-61
2022/05/22 00:43:32;;;;;;;10.55;4.55;;;;;;;14.81;68.62;101828.34;5059253;28;20048;-61
2022/05/22 00:46:04;;;;;;;9.55;4.63;;;;;;;14.91;68.47;101818.72;5059218;28;20029;-61
2022/05/22 00:48:30;;;;;;;11.75;4.28;;;;;;;14.99;68.49;101819.66;5059254;28;20033;-61
2022/05/22 00:51:19;;;;;;;11.20;4.13;;;;;;;15.03;67.67;101825.03;5059466;28;20382;-61
2022/05/22 00:53:49;;;;;;;12.38;4.38;;;;;;;15.01;68.09;101817.88;5059194;28;20029;-61
2022/05/22 00:56:20;;;;;;;13.73;4.70;;;;;;;14.95;67.56;101816.09;5059354;28;20025;-61
2022/05/22 00:58:47;;;;;;;10.80;4.53;;;;;;;14.93;67.65;101816.94;5059050;28;20036;-61
2022/05/22 01:01:13;;;;;;;11.27;4.30;;;;;;;14.97;67.58;101816.09;5059136;28;20047;-61
2022/05/22 01:03:39;;;;;;;9.25;4.43;;;;;;;14.92;67.70;101810.72;5059079;28;20540;-61
2022/05/22 01:06:07;;;;;;;14.77;5.20;;;;;;;14.95;67.31;101800.13;5058893;28;20032;-61
2022/05/22 01:08:35;;;;;;;10.05;4.47;;;;;;;14.97;67.07;101806.31;5059032;28;20397;-61
2022/05/22 01:11:38;;;;;;;10.70;4.60;;;;;;;15.03;66.77;101814.38;5059135;28;20035;-62
2022/05/22 01:14:09;;;;;;;12.50;4.55;;;;;;;14.89;67.07;101800.03;5055897;28;20064;-61
2022/05/22 01:16:35;;;;;;;10.77;4.80;;;;;;;14.76;67.35;101823.00;5055714;28;20444;-61
2022/05/22 01:19:08;;;;;;;10.85;4.68;;;;;;;14.69;67.56;101828.28;5055545;28;20045;-61
2022/05/22 01:21:33;;;;;;;12.98;4.82;;;;;;;14.68;67.48;101816.69;5055686;28;20429;-61
2022/05/22 01:23:59;;;;;;;13.40;5.00;;;;;;;14.74;67.25;101824.75;5055689;28;20041;-61
2022/05/22 01:26:27;;;;;;;9.30;4.38;;;;;;;14.74;66.71;101819.44;5055637;28;20052;-61
2022/05/22 01:28:52;;;;;;;13.07;4.90;;;;;;;14.75;67.19;101817.66;5055565;28;20051;-61
2022/05/22 01:31:18;;;;;;;10.43;5.00;;;;;;;14.70;67.38;101801.66;5055398;28;20066;-61
2022/05/22 01:33:44;;;;;;;11.57;4.60;;;;;;;14.65;67.28;101798.06;5055595;28;20025;-61
2022/05/22 01:36:16;;;;;;;11.18;4.57;;;;;;;14.60;68.12;101799.78;5055421;28;20032;-61
2022/05/22 01:38:42;;;;;;;13.55;4.97;;;;;;;14.44;68.37;101800.50;5055320;28;20104;-61
2022/05/22 01:41:07;;;;;;;12.80;5.43;;;;;;;14.22;68.44;101800.28;5055173;28;20634;-61
2022/05/22 01:43:34;;;;;;;16.52;5.40;;;;;;;14.15;69.19;101792.22;5055504;28;20103;-62
2022/05/22 01:46:01;;;;;;;13.80;5.72;;;;;;;14.15;69.23;101787.78;5055282;28;20036;-61
2022/05/22 01:48:26;;;;;;;13.25;5.13;;;;;;;14.19;68.96;101786.94;5055536;28;20028;-61
2022/05/22 01:50:52;;;;;;;10.23;5.05;;;;;;;14.17;68.47;101790.44;5055169;28;20025;-61
2022/05/22 01:53:19;;;;;;;11.18;5.18;;;;;;;14.19;68.77;101784.28;5055189;28;20017;-61
2022/05/22 01:55:46;;;;;;;10.27;4.88;;;;;;;14.15;68.67;101786.88;5055103;28;20470;-61
2022/05/22 01:58:11;;;;;;;12.38;4.78;;;;;;;14.13;68.98;101780.66;5054994;28;20136;-61
2022/05/22 02:00:38;;;;;;;12.50;5.05;;;;;;;14.10;69.14;101783.28;5055079;28;20127;-61
2022/05/22 02:03:04;;;;;;;15.30;5.07;;;;;;;14.05;69.08;101783.25;5054946;28;20021;-61
2022/05/22 02:05:30;;;;;;;9.55;4.88;;;;;;;14.02;69.15;101785.84;5055071;28;20017;-61
2022/05/22 02:10:40;;;;;;;8.82;4.90;;;;;;;13.77;69.75;101780.22;5055080;28;20074;-61
2022/05/22 02:13:07;;;;;;;8.82;4.90;;;;;;;13.70;70.03;101774.81;5054701;28;20028;-61
2022/05/22 02:15:33;;;;;;;9.55;4.65;;;;;;;13.71;70.54;101774.84;5054868;28;20029;-61
2022/05/22 02:17:59;;;;;;;7.32;4.45;;;;;;;13.73;70.09;101770.44;5054632;28;20040;-61
2022/05/22 02:20:26;;;;;;;12.18;5.30;;;;;;;13.74;69.60;101768.66;5055046;28;20174;-60
2022/05/22 02:22:57;;;;;;;10.27;5.10;;;;;;;13.77;69.99;101763.41;5054709;28;20033;-61
2022/05/22 02:25:32;;;;;;;10.95;4.80;;;;;;;13.75;69.48;101762.50;5053971;28;20466;-61
2022/05/22 02:27:58;;;;;;;9.52;4.70;;;;;;;13.69;69.25;101758.00;5054427;28;20155;-61
2022/05/22 02:30:29;;;;;;;11.05;4.60;;;;;;;13.58;69.55;101758.75;5054391;28;20032;-61
2022/05/22 02:32:54;;;;;;;8.13;4.85;;;;;;;13.44;70.46;101745.28;5054625;28;20032;-61
2022/05/22 02:35:20;;;;;;;6.63;4.20;;;;;;;13.42;70.49;101741.72;5054222;28;20037;-61
2022/05/22 02:37:51;;;;;;;7.55;4.43;;;;;;;13.36;70.51;101734.56;5054287;28;20083;-61
2022/05/22 02:40:21;;;;;;;9.52;4.38;;;;;;;13.30;70.54;101731.81;5054182;28;20033;-61
2022/05/22 02:42:48;;;;;;;8.48;4.38;;;;;;;13.23;70.89;101743.22;5054180;28;20039;-61
2022/05/22 02:45:16;;;;;;;6.85;4.45;;;;;;;13.23;70.89;101740.56;5054134;28;20478;-61
2022/05/22 02:47:41;;;;;;;6.60;4.15;;;;;;;13.25;70.87;101733.53;5054202;28;20083;-61
2022/05/22 02:50:09;;;;;;;9.20;4.50;;;;;;;13.22;70.06;101721.09;5053999;28;20433;-61
2022/05/22 02:52:34;;;;;;;8.40;4.60;;;;;;;13.27;69.97;101723.81;5053941;28;20091;-61
2022/05/22 02:55:00;;;;;;;7.93;4.65;;;;;;;13.15;70.87;101727.16;5053914;28;20029;-61
2022/05/22 02:57:26;;;;;;;7.68;4.22;;;;;;;13.07;71.53;101734.13;5053937;28;20039;-61
2022/05/22 02:59:54;;;;;;;9.88;4.78;;;;;;;13.03;71.79;101733.19;5053866;28;20033;-61
2022/05/22 03:02:20;;;;;;;8.00;4.50;;;;;;;13.00;71.41;101738.44;5053824;28;20025;-61
2022/05/22 03:04:47;;;;;;;9.65;4.70;;;;;;;12.99;71.41;101733.13;5053812;28;20056;-61
2022/05/22 03:07:15;;;;;;;9.73;4.47;;;;;;;12.99;70.88;101739.31;5053636;28;20500;-61
2022/05/22 03:09:42;;;;;;;8.63;4.45;;;;;;;13.03;70.84;101740.25;5053582;28;20021;-61
2022/05/22 03:12:10;;;;;;;8.05;4.28;;;;;;;13.09;70.28;101734.13;5053572;28;20033;-61
2022/05/22 03:14:36;;;;;;;9.40;4.50;;;;;;;13.19;70.09;101725.41;5053585;28;20029;-61
2022/05/22 03:17:01;;;;;;;10.88;4.75;;;;;;;13.16;70.06;101731.59;5053501;28;20062;-61
2022/05/22 03:19:27;;;;;;;10.05;4.18;;;;;;;13.15;69.80;101720.97;5053276;28;20095;-61
2022/05/22 03:21:53;;;;;;;9.95;4.28;;;;;;;13.11;70.35;101727.09;5053408;28;20470;-61
2022/05/22 03:24:18;;;;;;;6.63;3.90;;;;;;;13.11;70.35;101732.41;5053385;28;20025;-61
2022/05/22 03:26:43;;;;;;;7.22;3.78;;;;;;;13.11;70.27;101727.09;5053084;28;20075;-61
2022/05/22 03:29:08;;;;;;;7.35;4.00;;;;;;;13.06;70.11;101724.38;5053306;28;20033;-61
2022/05/22 03:31:34;;;;;;;9.40;3.95;;;;;;;13.04;70.16;101721.69;5053146;28;20025;-61
2022/05/22 03:33:59;;;;;;;8.35;4.00;;;;;;;12.95;70.18;101712.72;5053135;28;20021;-61
2022/05/22 03:36:25;;;;;;;9.63;4.40;;;;;;;12.95;70.21;101715.34;5052461;28;20024;-61
2022/05/22 03:38:50;;;;;;;8.60;4.40;;;;;;;12.97;69.97;101718.91;5052571;28;20111;-61
2022/05/22 03:41:21;;;;;;;7.47;4.65;;;;;;;12.90;70.11;101715.28;5052497;28;20055;-61
2022/05/22 03:43:46;;;;;;;9.43;4.95;;;;;;;12.87;70.48;101709.03;5052598;28;20090;-61
2022/05/22 03:46:12;;;;;;;7.72;4.38;;;;;;;12.81;70.45;101706.31;5052621;28;20021;-61
2022/05/22 03:48:37;;;;;;;9.05;4.40;;;;;;;12.84;70.28;101709.00;5052679;28;20385;-61
2022/05/22 03:51:04;;;;;;;8.45;3.80;;;;;;;12.80;69.93;101694.78;5052598;28;20124;-61
2022/05/22 03:53:29;;;;;;;7.72;4.32;;;;;;;12.88;69.77;101701.09;5052515;28;20087;-61
2022/05/22 03:55:55;;;;;;;6.82;4.10;;;;;;;12.87;69.85;101696.66;5052610;28;20028;-61
2022/05/22 03:58:20;;;;;;;9.00;4.32;;;;;;;12.84;70.03;101693.97;5052314;28;20436;-61
2022/05/22 04:00:46;;;;;;;6.88;4.57;;;;;;;12.83;70.23;101701.91;5034477;28;20108;-61
2022/05/22 04:03:11;;;;;;;10.00;4.63;;;;;;;12.78;70.41;101710.69;5052473;28;20041;-61
2022/05/22 04:05:37;;;;;;;10.18;5.03;;;;;;;12.77;70.52;101714.22;5052496;28;20079;-61
2022/05/22 04:08:02;;;;;;;8.63;4.85;;;;;;;12.75;70.67;101712.41;5052448;28;20367;-61
2022/05/22 04:10:28;;;;;;;10.82;5.65;;;;;;;12.71;71.48;101713.22;5052333;28;20087;-61
2022/05/22 04:12:53;;;;;;;10.85;5.68;;;;;;;12.62;71.72;101710.41;5052457;28;20029;-61
2022/05/22 04:15:21;;;;;;;10.43;5.88;;;;;;;12.61;72.35;101708.63;5052403;28;20028;-61
2022/05/22 04:17:47;;;;;;;12.05;5.90;;;;;;;12.60;71.77;101702.44;5052291;28;20470;-61
2022/05/22 04:20:15;;;;;;;13.90;5.85;;;;;;;12.65;72.05;101705.16;5051936;28;20049;-61
2022/05/22 04:25:26;;;;;;;14.57;6.00;;;;;;;12.62;72.76;101702.47;5052347;28;20063;-62
2022/05/22 04:27:51;;;;;;;13.20;6.22;;;;;;;12.62;72.94;101699.81;5052267;28;20055;-61
2022/05/22 04:30:18;;;;;;;10.68;5.97;;;;;;;12.72;73.07;101697.34;5052124;28;20017;-61
2022/05/22 04:32:50;;;;;;;12.48;6.30;;;;;;;12.80;72.68;101702.75;5052178;28;20024;-61
2022/05/22 04:35:16;;;;;;;14.60;6.55;;;;;;;12.82;72.79;101695.72;5052531;28;20452;-61
2022/05/22 04:37:42;;;;;;;10.60;6.03;;;;;;;12.90;72.36;101690.53;5052260;28;20435;-61
2022/05/22 04:40:16;;;;;;;18.95;7.00;;;;;;;12.96;72.47;101693.25;5051864;28;20036;-61
2022/05/22 04:42:42;;;;;;;12.93;6.45;;;;;;;12.95;72.52;101695.03;5052075;28;20021;-61
2022/05/22 04:45:09;;;;;;;11.02;6.68;;;;;;;12.92;72.62;101696.72;5052239;28;20027;-61
2022/05/22 04:47:37;;;;;;;12.00;6.93;;;;;;;12.95;72.48;101707.41;5053686;28;20159;-61
2022/05/22 04:50:03;;;;;;;13.02;6.80;;;;;;;12.92;72.76;101707.34;5055837;28;20037;-61
2022/05/22 04:52:29;;;;;;;14.27;7.05;;;;;;;12.96;73.21;101710.06;5056209;28;20021;-61
2022/05/22 04:54:55;;;;;;;15.90;7.00;;;;;;;12.99;73.26;101702.16;5055646;28;20029;-61
2022/05/22 04:57:20;;;;;;;15.75;7.55;;;;;;;13.15;73.10;101702.41;5055602;28;20025;-61
2022/05/22 04:59:46;;;;;;;12.73;7.07;;;;;;;13.28;72.95;101699.97;5055518;28;20402;-61
2022/05/22 05:02:11;;;;;;;13.25;7.35;;;;;;;13.45;72.32;101697.53;5055631;28;20099;-61
2022/05/22 05:04:37;;;;;;;13.00;7.65;;;;;;;13.56;71.92;101694.97;5055515;28;20116;-61
2022/05/22 05:07:07;;;;;;;14.15;7.82;;;;;;;13.69;71.37;101691.59;5055710;28;20462;-61
2022/05/22 05:09:34;;;;;;;13.60;8.18;;;;;;;13.82;70.98;101695.28;5037380;28;20389;-61
2022/05/22 05:12:01;;;;;;;14.15;8.05;;;;;;;13.93;70.76;101690.97;5055477;28;20040;-61
2022/05/22 05:14:30;;;;;;;13.05;8.15;;;;;;;14.01;70.64;101688.41;5055389;28;20060;-61
2022/05/22 05:16:56;;;;;;;13.90;7.35;;;;;;;14.11;70.67;101684.97;5055347;28;20029;-61
2022/05/22 05:19:21;;;;;;;12.75;7.50;;;;;;;14.23;70.17;101678.88;5054859;28;20051;-61
2022/05/22 05:21:46;;;;;;;13.02;7.90;;;;;;;14.31;70.29;101678.94;5055253;28;20428;-61
2022/05/22 05:24:12;;;;;;;15.88;7.78;;;;;;;14.46;69.60;101687.91;5054477;28;20568;-62
2022/05/22 05:26:37;;;;;;;11.85;7.40;;;;;;;14.62;69.68;101691.63;5054717;28;20043;-61
2022/05/22 05:29:03;;;;;;;12.93;7.20;;;;;;;14.72;69.13;101684.59;5055139;28;20029;-61
2022/05/22 05:31:28;;;;;;;13.93;8.05;;;;;;;14.81;68.94;101687.34;5055053;28;20086;-61
2022/05/22 05:33:53;;;;;;;12.15;8.13;;;;;;;14.83;69.48;101687.38;5055163;28;20024;-61
2022/05/22 05:36:19;;;;;;;16.70;8.05;;;;;;;14.81;68.83;101697.97;5054980;28;20052;-61
2022/05/22 05:38:44;;;;;;;12.65;8.60;;;;;;;14.76;68.97;101694.41;5055129;28;20151;-61
2022/05/22 05:41:09;;;;;;;14.15;7.85;;;;;;;14.85;68.25;101699.78;5055762;28;20059;-61
2022/05/22 05:43:37;;;;;;;17.75;7.72;;;;;;;14.85;68.72;101699.78;5056144;28;20378;-61
2022/05/22 05:46:02;;;;;;;17.08;8.18;;;;;;;14.76;69.29;101692.63;5037410;28;20449;-61
2022/05/22 05:48:28;;;;;;;14.73;8.07;;;;;;;14.65;69.09;101694.34;5055094;28;20146;-61
2022/05/22 05:50:55;;;;;;;11.82;7.85;;;;;;;14.65;69.02;101693.44;5054809;28;20474;-61
2022/05/22 05:53:21;;;;;;;12.00;7.60;;;;;;;14.64;69.06;101696.97;5054807;28;20123;-61
2022/05/22 05:55:50;;;;;;;15.50;7.95;;;;;;;14.54;69.88;101690.69;5054479;28;20199;-62
2022/05/22 05:58:16;;;;;;;12.20;8.18;;;;;;;14.45;69.94;101698.56;5054252;28;20103;-61
2022/05/22 06:00:43;;;;;;;14.35;7.95;;;;;;;14.43;69.78;101700.31;5054805;28;20098;-61
2022/05/22 06:03:09;;;;;;;15.55;8.18;;;;;;;14.56;69.83;101696.94;5054804;28;20466;-61
2022/05/22 06:05:35;;;;;;;14.98;8.13;;;;;;;14.70;69.12;101697.03;5054473;28;20028;-61
2022/05/22 06:08:01;;;;;;;14.90;8.57;;;;;;;14.86;68.95;101708.66;5054408;28;20036;-61
2022/05/22 06:10:26;;;;;;;15.48;8.27;;;;;;;15.03;69.12;101704.31;5054233;28;20029;-61
2022/05/22 06:12:52;;;;;;;17.15;8.75;;;;;;;15.18;67.82;101700.88;5054358;28;20032;-61
2022/05/22 06:15:17;;;;;;;13.32;8.20;;;;;;;15.31;67.43;101702.72;5054473;28;20020;-61
2022/05/22 06:17:46;;;;;;;14.88;8.40;;;;;;;15.36;67.56;101702.75;5054296;28;20031;-61
2022/05/22 06:20:15;;;;;;;13.93;8.07;;;;;;;15.42;68.42;101702.78;5045682;28;20053;-61
2022/05/22 06:22:42;;;;;;;15.10;7.88;;;;;;;15.52;67.36;101694.81;5054344;28;20032;-61
2022/05/22 06:25:14;;;;;;;14.85;8.02;;;;;;;15.58;68.00;101698.41;5053967;28;20025;-61
2022/05/22 06:27:39;;;;;;;17.20;8.32;;;;;;;15.52;67.29;101697.50;5054086;28;20025;-61
2022/05/22 06:30:05;;;;;;;14.05;8.20;;;;;;;15.66;67.02;101700.22;5054175;28;20021;-61
2022/05/22 06:32:30;;;;;;;17.42;8.07;;;;;;;15.77;66.35;101709.16;5054182;28;20112;-61
2022/05/22 06:34:58;;;;;;;16.67;8.57;;;;;;;16.00;65.22;101703.00;5054067;28;20112;-61
2022/05/22 06:37:24;;;;;;;13.18;7.70;;;;;;;16.28;64.94;101710.16;5054011;28;20036;-61
2022/05/22 06:39:51;;;;;;;14.27;8.30;;;;;;;16.53;63.97;101710.19;5053699;28;20028;-61
2022/05/22 06:42:34;;;;;;;19.60;8.40;;;;;;;16.81;64.48;101716.41;5053920;28;20470;-61
2022/05/22 06:45:22;;;;;;;14.13;8.20;;;;;;;17.14;63.43;101710.13;5053924;28;20036;-61
2022/05/22 06:47:49;;;;;;;14.70;7.65;;;;;;;17.30;62.30;101707.41;5053916;28;20363;-61
2022/05/22 06:50:18;;;;;;;16.77;8.18;;;;;;;17.45;62.13;101708.25;5053782;28;20017;-62
2022/05/22 06:52:44;;;;;;;13.82;7.57;;;;;;;17.68;62.05;101701.91;5053907;28;20056;-61
2022/05/22 06:55:11;;;;;;;13.75;7.95;;;;;;;17.93;60.74;101706.25;5053818;28;20028;-61
2022/05/22 06:57:37;;;;;;;13.68;8.07;;;;;;;18.13;60.22;101711.50;5054003;28;20032;-61
2022/05/22 07:00:06;;;;;;;14.93;8.10;;;;;;;18.35;60.26;101712.22;5053448;28;20033;-61
2022/05/22 07:02:35;;;;;;;16.48;8.00;;;;;;;18.55;57.83;101698.69;5053639;28;20025;-61
2022/05/22 07:05:02;;;;;;;15.18;7.43;;;;;;;18.75;57.28;101695.84;5053999;28;20072;-62
2022/05/22 07:07:27;;;;;;;16.23;7.47;;;;;;;19.04;56.91;101682.19;5055919;28;20021;-61
2022/05/22 07:09:54;;;;;;;13.35;7.72;;;;;;;19.38;56.95;101700.56;5054004;28;20039;-61
2022/05/22 07:12:20;;;;;;;15.50;7.55;;;;;;;19.56;55.03;101699.44;5054139;28;20036;-61
2022/05/22 07:14:49;;;;;;;13.88;7.38;;;;;;;19.79;54.53;101700.06;5053489;28;20025;-61
2022/05/22 07:17:16;;;;;;;16.48;7.07;;;;;;;20.02;53.83;101699.72;5053375;28;20029;-61
2022/05/22 07:19:43;;;;;;;15.30;7.32;;;;;;;20.22;53.97;101692.28;5052823;28;20053;-61
2022/05/22 07:22:08;;;;;;;15.18;7.53;;;;;;;20.39;52.20;101696.50;5035309;28;20390;-61
2022/05/22 07:24:34;;;;;;;10.73;6.05;;;;;;;20.47;51.47;101689.16;5053142;28;20017;-61
2022/05/22 07:27:00;;;;;;;13.95;6.78;;;;;;;20.47;52.02;101695.44;5053055;28;20170;-61
2022/05/22 07:29:25;;;;;;;12.73;6.97;;;;;;;20.53;51.38;101685.53;5053089;28;20466;-61
2022/05/22 07:31:51;;;;;;;14.43;6.93;;;;;;;20.73;50.65;101686.97;5052993;28;20017;-62
2022/05/22 07:34:17;;;;;;;14.50;7.03;;;;;;;20.81;51.54;101681.44;5053141;28;20021;-61
2022/05/22 07:36:42;;;;;;;16.48;7.40;;;;;;;20.76;52.00;101686.91;5053058;28;20033;-61
2022/05/22 07:39:08;;;;;;;13.43;6.60;;;;;;;20.84;51.35;101684.06;5052794;28;20082;-61
2022/05/22 07:41:34;;;;;;;14.73;6.85;;;;;;;20.84;51.13;101677.81;5052843;28;20063;-61
2022/05/22 07:43:59;;;;;;;16.58;6.93;;;;;;;20.97;50.87;101677.56;5052849;28;20025;-62
2022/05/22 07:46:26;;;;;;;14.65;6.47;;;;;;;21.17;49.99;101678.97;5052832;28;20035;-61
2022/05/22 07:48:51;;;;;;;18.35;7.18;;;;;;;21.14;50.19;101682.59;5052874;28;20029;-61
2022/05/22 07:51:17;;;;;;;14.15;6.30;;;;;;;21.25;49.78;101683.28;5052739;28;20032;-62
2022/05/22 07:53:42;;;;;;;17.02;6.68;;;;;;;21.17;48.71;101677.19;5052831;28;20423;-62
2022/05/22 07:56:08;;;;;;;14.77;6.22;;;;;;;21.27;50.06;101678.75;5052895;28;20108;-62
2022/05/22 07:58:34;;;;;;;13.98;5.80;;;;;;;21.34;46.58;101674.19;5052495;28;20025;-62
2022/05/22 08:01:00;;;;;;;10.70;5.20;;;;;;;21.56;45.31;101671.91;5052783;28;20037;-62
2022/05/22 08:03:26;;;;;;;13.05;5.40;;;;;;;21.67;44.69;101667.22;5052633;28;20600;-61
2022/05/22 08:05:54;;;;;;;10.82;4.00;;;;;;;21.83;43.08;101658.78;5052630;28;20029;-62
2022/05/22 08:08:19;;;;;;;11.23;4.40;;;;;;;21.97;41.56;101664.75;5052583;28;20485;-62
2022/05/22 08:10:45;;;;;;;12.50;4.85;;;;;;;22.02;42.32;101656.56;5052564;28;20021;-62
2022/05/22 08:13:13;;;;;;;11.32;4.65;;;;;;;22.16;42.39;101658.00;5050943;28;20022;-62
2022/05/22 08:15:41;;;;;;;12.80;4.60;;;;;;;22.42;44.18;101653.78;5052452;28;20033;-62
2022/05/22 08:18:08;;;;;;;14.57;4.72;;;;;;;22.70;41.04;101644.06;5052357;28;20040;-62
2022/05/22 08:20:36;;;;;;;11.07;4.00;;;;;;;22.67;39.47;101643.25;5051790;28;20055;-62
2022/05/22 08:23:14;;;;;;;11.20;3.67;;;;;;;22.59;39.95;101638.06;5056414;28;20029;-62
2022/05/22 08:25:41;;;;;;;14.10;3.85;;;;;;;22.72;39.29;101627.84;5056007;28;20033;-62
2022/05/22 08:28:06;;;;;;;12.70;4.20;;;;;;;22.61;39.91;101628.16;5056245;28;20025;-62
2022/05/22 08:30:32;;;;;;;11.90;4.18;;;;;;;22.77;37.89;101622.34;5056042;28;20100;-62
2022/05/22 08:32:58;;;;;;;9.18;3.58;;;;;;;22.72;38.58;101622.47;5056455;28;20436;-62
2022/05/22 08:35:27;;;;;;;7.28;3.20;;;;;;;22.91;38.22;101620.16;5055749;28;20025;-62
2022/05/22 08:37:53;;;;;;;12.23;3.90;;;;;;;22.90;39.15;101608.50;5056099;28;20043;-62
2022/05/22 08:40:21;;;;;;;10.55;3.95;;;;;;;22.88;38.88;101609.44;5056056;28;19913;-62
2022/05/22 08:42:50;;;;;;;9.07;3.95;;;;;;;23.14;40.23;101603.34;5055939;28;20535;-62
2022/05/22 08:45:25;;;;;;;12.13;4.35;;;;;;;23.46;38.40;101600.53;5055888;28;20108;-62
2022/05/22 08:48:16;;;;;;;13.75;4.22;;;;;;;23.80;39.99;101591.41;5055702;28;20363;-62
2022/05/22 08:50:44;;;;;;;9.35;4.30;;;;;;;23.95;36.75;101584.66;5055875;28;20421;-62
2022/05/22 08:53:22;;;;;;;10.77;4.30;;;;;;;23.96;37.57;101590.00;5055739;28;20497;-62
2022/05/22 08:58:59;;;;;;;14.75;4.43;;;;;;;24.24;36.30;101579.16;5055422;28;20036;-62
2022/05/22 09:01:28;;;;;;;10.43;4.43;;;;;;;24.43;35.63;101578.53;5055744;28;20029;-62
2022/05/22 09:03:53;;;;;;;9.68;4.90;;;;;;;24.54;35.09;101586.25;5055701;28;20414;-62
2022/05/22 09:06:29;;;;;;;11.18;4.45;;;;;;;24.48;36.68;101576.53;5055682;28;20059;-62
2022/05/22 09:08:54;;;;;;;9.93;4.25;;;;;;;24.65;37.91;101570.53;5055358;28;20478;-62
2022/05/22 09:11:39;;;;;;;9.30;4.57;;;;;;;24.76;35.94;101572.88;5055507;28;20106;-62
2022/05/22 09:14:10;;;;;;;13.63;4.90;;;;;;;24.78;37.05;101571.84;5055352;28;20040;-62
2022/05/22 09:16:59;;;;;;;12.00;4.75;;;;;;;24.64;37.76;101568.78;5055467;28;20025;-62
2022/05/22 09:19:41;;;;;;;10.45;4.70;;;;;;;24.29;37.46;101559.22;5053541;28;20081;-61
2022/05/22 09:23:03;;;;;;;11.93;5.10;;;;;;;24.33;37.18;101567.16;5055423;28;20033;-62
2022/05/22 09:25:44;;;;;;;10.93;4.90;;;;;;;24.41;38.30;101558.78;4974181;28;20068;-62
2022/05/22 09:28:21;;;;;;;12.10;5.20;;;;;;;24.56;36.50;101562.78;4974335;28;20038;-62
2022/05/22 09:30:57;;;;;;;11.70;5.10;;;;;;;24.58;36.93;101560.88;4974157;28;20047;-62
2022/05/22 09:33:47;;;;;;;14.75;5.35;;;;;;;24.68;36.60;101552.41;4973757;28;20114;-62
2022/05/22 09:36:18;;;;;;;13.70;5.25;;;;;;;25.15;36.81;101557.88;4974266;28;20480;-62
2022/05/22 09:39:14;;;;;;;11.48;5.00;;;;;;;25.34;36.21;101551.72;4974354;28;20122;-62
2022/05/22 09:41:55;;;;;;;12.75;5.05;;;;;;;25.51;36.02;101543.81;4974147;28;20411;-62
2022/05/22 09:44:33;;;;;;;13.50;5.65;;;;;;;25.51;33.79;101542.94;4974396;28;20081;-62
2022/05/22 09:47:19;;;;;;;13.95;5.40;;;;;;;25.58;35.42;101536.34;4974011;28;20117;-62
2022/05/22 09:50:00;;;;;;;15.10;5.93;;;;;;;25.29;33.67;101530.28;4974316;28;20049;-62
2022/05/22 09:52:38;;;;;;;10.43;5.43;;;;;;;25.18;33.61;101536.13;4974102;28;20038;-62
2022/05/22 09:55:27;;;;;;;9.98;5.40;;;;;;;25.38;34.71;101529.03;4985476;28;20128;-62
2022/05/22 09:58:10;;;;;;;15.63;6.70;;;;;;;25.25;34.53;101531.34;5054716;28;20028;-62
2022/05/22 10:01:15;;;;;;;11.80;5.93;;;;;;;24.80;34.60;101540.25;5054815;28;20040;-62
2022/05/22 10:03:49;;;;;;;12.30;6.28;;;;;;;24.53;35.34;101538.56;5054625;28;20100;-62
2022/05/22 10:06:44;;;;;;;18.10;5.70;;;;;;;24.99;37.66;101532.31;5054873;28;20043;-62
2022/05/22 10:09:33;;;;;;;14.15;6.10;;;;;;;25.50;35.39;101536.66;5054640;28;20031;-62
2022/05/22 10:12:37;;;;;;;16.38;6.43;;;;;;;25.88;35.13;101535.09;5054684;28;20108;-62
2022/05/22 10:15:21;;;;;;;12.57;5.93;;;;;;;26.04;34.17;101534.44;5054616;28;20067;-62
2022/05/22 10:18:24;;;;;;;12.57;5.50;;;;;;;26.38;33.94;101531.13;5054528;28;20108;-62
2022/05/22 10:21:15;;;;;;;11.02;6.20;;;;;;;26.43;34.14;101529.13;5053736;28;20052;-62
2022/05/22 10:23:49;;;;;;;14.90;5.90;;;;;;;26.20;32.91;101519.28;5053947;28;20029;-62
2022/05/22 10:26:28;;;;;;;13.20;5.72;;;;;;;26.11;34.00;101527.81;5054160;28;20024;-61
2022/05/22 10:29:00;;;;;;;10.15;5.70;;;;;;;26.15;32.83;101522.19;5054088;28;20028;-62
2022/05/22 10:31:40;;;;;;;;;;;;;;;26.26;34.26;101510.91;5054397;28;20498;-62
2022/05/22 10:34:29;;;;;;;13.30;5.30;;;;;;;26.51;34.17;101512.53;5053876;28;19960;-62
2022/05/22 10:36:59;;;;;;;12.52;5.38;;;;;;;26.45;31.45;101500.16;4972967;28;20050;-62
2022/05/22 10:39:24;;;;;;;13.60;5.15;;;;;;;26.35;32.54;101512.31;4972695;28;20049;-61
2022/05/22 10:44:56;;;;;;;12.60;5.75;;;;;;;26.89;31.48;101497.22;4972103;28;20109;-62
2022/05/22 10:47:29;;;;;;;12.48;5.80;;;;;;;26.75;30.85;101499.69;4972855;28;20109;-62
2022/05/22 10:49:55;;;;;;;14.73;5.80;;;;;;;26.45;32.76;101492.00;4972527;28;20035;-62
2022/05/22 10:52:31;;;;;;;12.93;5.38;;;;;;;26.61;31.40;101484.94;4972540;28;20045;-62
2022/05/22 10:54:57;;;;;;;13.23;5.60;;;;;;;26.88;33.22;101477.34;4972429;28;20045;-62
2022/05/22 10:57:31;;;;;;;13.50;5.00;;;;;;;27.34;31.54;101471.59;4972271;28;20034;-62
2022/05/22 11:00:09;;;;;;;11.05;5.15;;;;;;;27.57;28.52;101470.41;4972489;28;20036;-62
2022/05/22 11:02:34;;;;;;;11.27;4.88;;;;;;;28.00;30.04;101463.69;4972508;28;20031;-62
2022/05/22 11:05:05;;;;;;;13.32;5.40;;;;;;;28.40;28.49;101454.34;4972713;28;20035;-62
2022/05/22 11:07:46;;;;;;;12.27;5.40;;;;;;;28.67;28.80;101454.66;4972612;28;20090;-62
2022/05/22 11:10:20;;;;;;;13.73;5.33;;;;;;;28.74;28.89;101451.63;4972821;28;20038;-62
2022/05/22 11:12:46;;;;;;;11.98;5.60;;;;;;;28.05;29.79;101464.34;4975269;28;20375;-63
2022/05/22 11:15:15;;;;;;;10.60;5.00;;;;;;;27.52;28.14;101459.78;5053443;28;20446;-62
2022/05/22 11:17:42;;;;;;;11.82;5.15;;;;;;;27.55;29.85;101459.66;5053414;28;20033;-62
2022/05/22 11:20:18;;;;;;;13.07;5.63;;;;;;;28.04;28.74;101458.97;5052953;28;20106;-62
2022/05/22 11:22:58;;;;;;;11.68;5.70;;;;;;;27.89;29.29;101447.09;5053269;28;20028;-62
2022/05/22 11:25:45;;;;;;;10.65;5.43;;;;;;;27.98;29.47;101445.72;5052982;28;20394;-63
2022/05/22 11:28:34;;;;;;;10.68;5.63;;;;;;;28.30;29.22;101435.84;5053254;28;20036;-62
2022/05/22 11:31:54;;;;;;;12.27;6.00;;;;;;;28.59;29.78;101432.44;5053018;28;20090;-62
2022/05/22 11:34:25;;;;;;;12.00;5.78;;;;;;;28.36;28.46;101425.56;4972108;28;20050;-62
2022/05/22 11:37:12;;;;;;;12.05;6.13;;;;;;;28.11;30.24;101419.66;4972057;28;20046;-62
2022/05/22 11:40:08;;;;;;;15.32;6.22;;;;;;;27.65;31.09;101413.91;4972177;28;20084;-62
2022/05/22 11:42:36;;;;;;;14.45;6.60;;;;;;;27.48;31.12;101403.03;4972205;28;20110;-62
2022/05/22 11:45:40;;;;;;;13.20;6.20;;;;;;;27.27;31.50;101404.97;4972160;28;20377;-62